createdAt,value
2022-12-07T00:02:26.203Z,93.55
2022-12-07T00:04:52.775Z,98.50
2022-12-07T00:07:24.898Z,97.38
2022-12-07T00:09:58.077Z,95.63
2022-12-07T00:12:24.736Z,98.80
2022-12-07T00:14:53.382Z,111.32
2022-12-07T00:17:19.954Z,89.10
2022-12-07T00:19:50.570Z,105.72
2022-12-07T00:22:21.505Z,99.10
2022-12-07T00:24:47.960Z,107.72
2022-12-07T00:27:14.576Z,96.80
2022-12-07T00:29:41.178Z,97.75
2022-12-07T00:32:10.663Z,93.72
2022-12-07T00:34:37.317Z,93.80
2022-12-07T00:37:03.875Z,93.78
2022-12-07T00:39:30.495Z,98.10
2022-12-07T00:42:00.273Z,101.70
2022-12-07T00:44:26.860Z,84.82
2022-12-07T00:46:55.848Z,87.68
2022-12-07T00:49:22.599Z,84.95
2022-12-07T00:51:50.034Z,93.68
2022-12-07T00:54:16.689Z,87.22
2022-12-07T00:56:44.764Z,95.88
2022-12-07T00:59:13.493Z,100.95
2022-12-07T01:01:40.147Z,95.55
2022-12-07T01:04:06.930Z,72.28
2022-12-07T01:06:36.638Z,88.75
2022-12-07T01:09:04.943Z,90.97
2022-12-07T01:11:36.113Z,99.43
2022-12-07T01:14:03.158Z,100.87
2022-12-07T01:16:31.506Z,92.97
2022-12-07T01:18:58.361Z,93.55
2022-12-07T01:21:26.452Z,91.22
2022-12-07T01:23:57.777Z,91.00
2022-12-07T01:26:29.029Z,93.60
2022-12-07T01:28:56.382Z,152.15
2022-12-07T01:31:24.323Z,100.32
2022-12-07T01:33:52.651Z,129.02
2022-12-07T01:36:20.329Z,96.47
2022-12-07T01:38:48.780Z,100.40
2022-12-07T01:41:15.792Z,109.43
2022-12-07T01:44:01.116Z,90.35
2022-12-07T01:46:27.662Z,109.68
2022-12-07T01:48:54.279Z,102.95
2022-12-07T01:51:23.380Z,91.30
2022-12-07T01:53:52.395Z,94.03
2022-12-07T01:56:21.050Z,83.28
2022-12-07T01:58:57.373Z,86.82
2022-12-07T02:01:24.164Z,96.40
2022-12-07T02:03:50.802Z,94.00
2022-12-07T02:06:20.245Z,95.18
2022-12-07T02:08:48.346Z,94.22
2022-12-07T02:11:20.645Z,81.18
2022-12-07T02:13:50.231Z,90.20
2022-12-07T02:16:35.228Z,104.72
2022-12-07T02:19:20.406Z,89.40
2022-12-07T02:21:46.909Z,74.88
2022-12-07T02:24:16.595Z,80.07
2022-12-07T02:26:45.804Z,88.53
2022-12-07T02:29:18.607Z,90.40
2022-12-07T02:31:48.509Z,83.55
2022-12-07T02:34:24.912Z,87.45
2022-12-07T02:36:55.444Z,95.65
2022-12-07T02:39:27.949Z,82.65
2022-12-07T02:42:00.738Z,84.85
2022-12-07T02:44:28.850Z,88.53
2022-12-07T02:46:58.177Z,76.30
2022-12-07T02:49:25.735Z,92.63
2022-12-07T02:51:53.364Z,94.10
2022-12-07T02:54:20.861Z,91.22
2022-12-07T02:56:53.575Z,102.65
2022-12-07T02:59:23.136Z,102.97
2022-12-07T03:02:17.148Z,99.35
2022-12-07T03:04:46.915Z,84.55
2022-12-07T03:07:34.175Z,97.53
2022-12-07T03:10:14.284Z,84.82
2022-12-07T03:12:46.588Z,96.40
2022-12-07T03:15:22.111Z,110.40
2022-12-07T03:17:50.898Z,90.53
2022-12-07T03:20:20.038Z,96.75
2022-12-07T03:22:50.276Z,104.55
2022-12-07T03:25:17.774Z,103.45
2022-12-07T03:27:50.948Z,102.72
2022-12-07T03:30:24.909Z,103.70
2022-12-07T03:32:59.439Z,104.75
2022-12-07T03:35:31.664Z,113.50
2022-12-07T03:37:58.261Z,104.28
2022-12-07T03:40:32.999Z,109.18
2022-12-07T03:43:03.163Z,115.80
2022-12-07T03:45:37.017Z,121.75
2022-12-07T03:48:08.245Z,114.05
2022-12-07T03:50:47.914Z,110.77
2022-12-07T03:53:23.554Z,132.73
2022-12-07T03:55:50.239Z,122.88
2022-12-07T03:58:29.982Z,120.00
2022-12-07T04:00:59.633Z,132.30
2022-12-07T04:03:26.318Z,137.75
2022-12-07T04:05:53.290Z,137.85
2022-12-07T04:08:19.988Z,138.27
2022-12-07T04:10:46.782Z,140.77
2022-12-07T04:13:16.718Z,136.20
2022-12-07T04:15:43.485Z,137.73
2022-12-07T04:18:12.762Z,136.73
2022-12-07T04:20:39.286Z,132.88
2022-12-07T04:23:09.118Z,133.60
2022-12-07T04:25:38.016Z,133.98
2022-12-07T04:28:07.232Z,127.78
2022-12-07T04:30:33.787Z,128.35
2022-12-07T04:33:00.367Z,130.00
2022-12-07T04:35:26.893Z,136.73
2022-12-07T04:37:53.426Z,122.40
2022-12-07T04:40:19.915Z,143.05
2022-12-07T04:42:46.444Z,142.32
2022-12-07T04:45:12.863Z,144.32
2022-12-07T04:47:39.381Z,121.80
2022-12-07T04:50:06.332Z,140.70
2022-12-07T04:52:33.003Z,146.52
2022-12-07T04:54:59.567Z,146.02
2022-12-07T04:57:26.077Z,150.98
2022-12-07T04:59:52.921Z,150.32
2022-12-07T05:02:19.453Z,138.05
2022-12-07T05:04:48.980Z,148.05
2022-12-07T05:07:15.513Z,144.38
2022-12-07T05:09:44.240Z,134.52
2022-12-07T05:12:13.946Z,140.32
2022-12-07T05:14:40.614Z,132.00
2022-12-07T05:17:13.608Z,143.27
2022-12-07T05:19:40.267Z,134.73
2022-12-07T05:22:10.803Z,141.02
2022-12-07T05:24:37.411Z,143.18
2022-12-07T05:27:07.028Z,149.70
2022-12-07T05:29:36.624Z,139.40
2022-12-07T05:32:05.763Z,143.65
2022-12-07T05:34:32.346Z,153.73
2022-12-07T05:36:58.865Z,152.18
2022-12-07T05:39:25.404Z,150.48
2022-12-07T05:42:10.412Z,135.10
2022-12-07T05:44:41.351Z,140.23
2022-12-07T05:47:16.724Z,160.82
2022-12-07T05:49:43.439Z,151.77
2022-12-07T05:52:10.317Z,153.43
2022-12-07T05:54:38.449Z,141.93
2022-12-07T05:57:04.989Z,155.65
2022-12-07T05:59:38.786Z,150.48
2022-12-07T06:02:23.685Z,164.00
2022-12-07T06:04:50.335Z,149.00
2022-12-07T06:07:17.455Z,160.80
2022-12-07T06:09:44.071Z,151.85
2022-12-07T06:12:32.744Z,159.43
2022-12-07T06:15:02.516Z,158.27
2022-12-07T06:17:29.111Z,144.65
2022-12-07T06:19:55.664Z,161.05
2022-12-07T06:22:23.541Z,149.80
2022-12-07T06:24:50.068Z,150.40
2022-12-07T06:27:19.388Z,163.02
2022-12-07T06:29:45.926Z,161.60
2022-12-07T06:32:13.299Z,164.48
2022-12-07T06:34:44.803Z,140.40
2022-12-07T06:37:14.114Z,142.82
2022-12-07T06:39:40.844Z,135.52
2022-12-07T06:42:10.362Z,132.82
2022-12-07T06:44:41.625Z,135.20
2022-12-07T06:52:27.555Z,121.93
2022-12-07T06:54:54.028Z,119.53
2022-12-07T06:57:23.888Z,127.47
2022-12-07T06:59:50.409Z,125.95
2022-12-07T07:02:20.079Z,179.90
2022-12-07T07:04:46.655Z,142.80
2022-12-07T07:07:13.184Z,152.27
2022-12-07T07:09:39.711Z,153.20
2022-12-07T07:12:06.498Z,152.13
2022-12-07T07:14:33.974Z,197.88
2022-12-07T07:17:03.000Z,202.75
2022-12-07T07:19:29.872Z,169.60
2022-12-07T07:21:56.580Z,155.55
2022-12-07T07:24:25.726Z,135.05
2022-12-07T07:26:52.375Z,149.85
2022-12-07T07:29:18.893Z,128.98
2022-12-07T07:31:45.453Z,120.18
2022-12-07T07:34:17.646Z,119.65
2022-12-07T07:36:44.189Z,117.30
2022-12-07T07:39:16.733Z,113.80
2022-12-07T07:41:43.449Z,115.88
2022-12-07T07:44:10.614Z,120.82
2022-12-07T07:46:38.867Z,116.60
2022-12-07T07:49:05.480Z,115.35
2022-12-07T07:51:32.056Z,126.82
2022-12-07T07:53:58.585Z,120.10
2022-12-07T07:56:29.609Z,114.90
2022-12-07T07:58:56.210Z,112.13
2022-12-07T08:01:22.764Z,114.70
2022-12-07T08:03:49.581Z,118.97
2022-12-07T08:06:19.799Z,124.07
2022-12-07T08:08:46.354Z,113.32
2022-12-07T08:11:12.988Z,117.47
2022-12-07T08:13:39.557Z,124.25
2022-12-07T08:16:14.252Z,117.90
2022-12-07T08:18:41.667Z,109.88
2022-12-07T08:21:09.013Z,119.97
2022-12-07T08:23:39.708Z,108.95
2022-12-07T08:26:12.508Z,112.60
2022-12-07T08:28:39.139Z,90.30
2022-12-07T08:31:12.647Z,95.18
2022-12-07T08:33:39.350Z,99.53
2022-12-07T08:36:10.915Z,96.45
2022-12-07T08:38:39.451Z,105.53
2022-12-07T08:41:06.663Z,94.40
2022-12-07T08:43:33.290Z,100.38
2022-12-07T08:46:06.502Z,92.32
2022-12-07T08:48:40.871Z,98.07
2022-12-07T08:51:07.729Z,95.40
2022-12-07T08:53:35.468Z,82.95
2022-12-07T08:56:02.275Z,93.25
2022-12-07T08:58:28.779Z,90.57
2022-12-07T09:00:55.291Z,95.35
2022-12-07T09:03:21.788Z,87.60
2022-12-07T09:05:48.416Z,101.07
2022-12-07T09:08:15.528Z,94.45
2022-12-07T09:10:42.217Z,87.57
2022-12-07T09:13:08.730Z,90.70
2022-12-07T09:15:35.278Z,93.63
2022-12-07T09:18:01.835Z,92.13
2022-12-07T09:20:31.377Z,94.22
2022-12-07T09:22:57.918Z,95.88
2022-12-07T09:25:24.548Z,95.68
2022-12-07T09:27:56.302Z,90.30
2022-12-07T09:30:22.800Z,83.13
2022-12-07T09:32:49.296Z,89.25
2022-12-07T09:35:16.046Z,85.97
2022-12-07T09:37:42.528Z,72.00
2022-12-07T09:40:09.584Z,80.30
2022-12-07T09:42:37.968Z,75.03
2022-12-07T09:45:06.254Z,80.72
2022-12-07T09:47:35.163Z,81.32
2022-12-07T09:50:05.948Z,74.30
2022-12-07T09:52:38.812Z,76.20
2022-12-07T09:55:10.509Z,77.05
2022-12-07T09:57:38.263Z,71.30
2022-12-07T10:00:13.674Z,79.20
2022-12-07T10:02:43.097Z,67.03
2022-12-07T10:05:23.517Z,73.78
2022-12-07T10:07:59.540Z,62.47
2022-12-07T10:10:32.711Z,66.90
2022-12-07T10:13:23.915Z,77.22
2022-12-07T10:15:55.605Z,71.85
2022-12-07T10:18:22.483Z,73.95
2022-12-07T10:20:49.271Z,71.18
2022-12-07T10:23:18.826Z,61.42
2022-12-07T10:25:49.154Z,67.10
2022-12-07T10:28:19.529Z,67.32
2022-12-07T10:30:58.455Z,67.95
2022-12-07T10:33:31.852Z,61.85
2022-12-07T10:35:58.638Z,71.68
2022-12-07T10:38:28.998Z,72.80
2022-12-07T10:41:12.391Z,56.35
2022-12-07T10:44:01.110Z,57.88
2022-12-07T10:46:31.168Z,60.42
2022-12-07T10:49:14.146Z,61.63
2022-12-07T10:51:49.072Z,56.75
2022-12-07T10:54:29.077Z,56.92
2022-12-07T10:57:04.614Z,71.32
2022-12-07T10:59:31.198Z,57.40
2022-12-07T11:02:16.372Z,60.60
2022-12-07T11:05:03.247Z,55.95
2022-12-07T11:07:35.917Z,58.35
2022-12-07T11:10:14.159Z,60.65
2022-12-07T11:13:00.929Z,63.75
2022-12-07T11:15:33.180Z,63.20
2022-12-07T11:18:06.943Z,57.53
2022-12-07T11:20:35.762Z,58.80
2022-12-07T11:23:16.326Z,59.22
2022-12-07T11:25:42.869Z,61.75
2022-12-07T11:28:26.906Z,63.78
2022-12-07T11:31:29.421Z,62.25
2022-12-07T11:34:06.687Z,55.38
2022-12-07T11:36:38.419Z,53.15
2022-12-07T11:39:14.580Z,55.90
2022-12-07T11:41:48.640Z,56.88
2022-12-07T11:44:36.417Z,54.47
2022-12-07T11:47:44.874Z,56.63
2022-12-07T11:50:25.847Z,59.72
2022-12-07T11:52:55.349Z,56.78
2022-12-07T11:55:31.406Z,57.47
2022-12-07T11:58:07.853Z,57.67
2022-12-07T12:00:36.604Z,57.50
2022-12-07T12:03:07.200Z,56.00
2022-12-07T12:05:33.873Z,62.15
2022-12-07T12:11:28.405Z,56.70
2022-12-07T12:17:08.435Z,55.38
2022-12-07T12:19:57.372Z,60.10
2022-12-07T12:22:33.415Z,55.95
2022-12-07T12:25:00.723Z,55.88
2022-12-07T12:27:35.673Z,57.35
2022-12-07T12:30:04.730Z,57.25
2022-12-07T12:32:34.561Z,59.13
2022-12-07T12:35:20.948Z,54.40
2022-12-07T12:37:48.273Z,53.20
2022-12-07T12:40:17.743Z,62.72
2022-12-07T12:42:53.224Z,62.28
2022-12-07T12:45:22.810Z,56.05
2022-12-07T12:48:01.869Z,60.58
2022-12-07T12:50:29.977Z,51.67
2022-12-07T12:53:25.889Z,56.85
2022-12-07T12:56:05.078Z,57.00
2022-12-07T12:58:33.221Z,54.38
2022-12-07T13:01:20.956Z,53.20
2022-12-07T13:03:57.846Z,53.78
2022-12-07T13:06:27.506Z,52.63
2022-12-07T13:08:55.738Z,54.95
2022-12-07T13:11:28.504Z,53.03
2022-12-07T13:14:14.937Z,53.55
2022-12-07T13:16:42.376Z,54.97
2022-12-07T13:19:27.786Z,50.85
2022-12-07T13:21:54.690Z,52.55
2022-12-07T13:24:24.254Z,52.55
2022-12-07T13:26:57.244Z,53.70
2022-12-07T13:29:26.937Z,55.63
2022-12-07T13:31:55.192Z,51.38
2022-12-07T13:34:47.841Z,57.97
2022-12-07T13:37:17.377Z,50.38
2022-12-07T13:39:57.674Z,50.67
2022-12-07T13:42:30.250Z,51.75
2022-12-07T13:45:04.008Z,52.42
2022-12-07T13:47:42.997Z,58.03
2022-12-07T13:50:25.287Z,53.33
2022-12-07T13:55:26.136Z,49.45
2022-12-07T13:57:54.714Z,52.33
2022-12-07T14:00:29.027Z,61.35
2022-12-07T14:03:00.808Z,48.80
2022-12-07T14:05:31.958Z,51.33
2022-12-07T14:08:00.274Z,52.17
2022-12-07T14:10:27.203Z,51.40
2022-12-07T14:12:53.850Z,51.13
2022-12-07T14:15:37.076Z,52.80
2022-12-07T14:18:11.583Z,53.35
2022-12-07T14:20:40.388Z,53.50
2022-12-07T14:23:21.637Z,48.55
2022-12-07T14:25:54.365Z,50.78
2022-12-07T14:28:27.014Z,52.15
2022-12-07T14:30:53.533Z,53.70
2022-12-07T14:33:20.631Z,45.08
2022-12-07T14:35:47.247Z,52.65
2022-12-07T14:38:13.765Z,51.53
2022-12-07T14:40:40.350Z,44.85
2022-12-07T14:43:11.537Z,46.83
2022-12-07T14:45:38.126Z,47.13
2022-12-07T14:53:56.970Z,50.10
2022-12-07T14:56:24.656Z,44.67
2022-12-07T14:58:51.157Z,43.53
2022-12-07T15:01:17.807Z,37.88
2022-12-07T15:03:44.449Z,44.00
2022-12-07T15:06:14.199Z,43.58
2022-12-07T15:08:40.737Z,44.08
2022-12-07T15:11:07.535Z,44.90
2022-12-07T15:13:52.648Z,45.10
2022-12-07T15:16:26.155Z,48.60
2022-12-07T15:19:27.481Z,46.75
2022-12-07T15:21:50.894Z,44.60
2022-12-07T15:24:22.782Z,47.85
2022-12-07T15:26:53.318Z,47.28
2022-12-07T15:29:24.952Z,44.72
2022-12-07T15:31:57.524Z,45.80
2022-12-07T15:34:26.124Z,47.35
2022-12-07T15:36:52.639Z,49.72
2022-12-07T15:39:19.298Z,43.85
2022-12-07T15:41:49.048Z,41.67
2022-12-07T15:44:34.881Z,44.63
2022-12-07T15:47:01.828Z,43.88
2022-12-07T15:49:32.604Z,43.50
2022-12-07T15:51:59.206Z,41.95
2022-12-07T15:54:27.062Z,41.53
2022-12-07T15:56:54.039Z,45.17
2022-12-07T15:59:20.809Z,46.55
2022-12-07T16:01:51.995Z,40.38
2022-12-07T16:04:18.657Z,41.65
2022-12-07T16:06:45.833Z,45.83
2022-12-07T16:09:16.074Z,50.03
2022-12-07T16:11:45.162Z,50.60
2022-12-07T16:14:17.690Z,45.03
2022-12-07T16:16:44.383Z,53.50
2022-12-07T16:19:16.788Z,50.28
2022-12-07T16:21:44.352Z,43.00
2022-12-07T16:24:11.405Z,51.08
2022-12-07T16:26:38.477Z,43.33
2022-12-07T16:29:11.318Z,48.38
2022-12-07T16:31:37.912Z,49.55
2022-12-07T16:34:04.718Z,45.28
2022-12-07T16:37:02.611Z,50.05
2022-12-07T16:39:21.253Z,46.63
2022-12-07T16:41:47.993Z,47.72
2022-12-07T16:44:15.441Z,47.58
2022-12-07T16:46:48.743Z,51.85
2022-12-07T16:49:16.552Z,49.25
2022-12-07T16:51:46.110Z,48.85
2022-12-07T16:54:13.501Z,52.15
2022-12-07T16:56:42.383Z,50.58
2022-12-07T16:59:09.088Z,50.45
2022-12-07T17:01:37.109Z,52.05
2022-12-07T17:04:05.515Z,51.97
2022-12-07T17:06:32.546Z,53.05
2022-12-07T17:08:59.197Z,45.20
2022-12-07T17:11:30.340Z,48.78
2022-12-07T17:14:15.301Z,38.63
2022-12-07T17:16:43.261Z,58.25
2022-12-07T17:19:15.545Z,49.78
2022-12-07T17:21:42.726Z,46.30
2022-12-07T17:24:10.277Z,51.33
2022-12-07T17:26:37.340Z,52.75
2022-12-07T17:29:04.575Z,43.53
2022-12-07T17:31:31.284Z,49.85
2022-12-07T17:33:57.932Z,48.13
2022-12-07T17:36:25.959Z,48.13
2022-12-07T17:38:55.015Z,41.58
2022-12-07T17:41:41.896Z,48.92
2022-12-07T17:44:10.519Z,53.33
2022-12-07T17:46:37.661Z,51.80
2022-12-07T17:49:04.569Z,55.70
2022-12-07T17:51:55.867Z,53.50
2022-12-07T17:54:27.508Z,54.22
2022-12-07T17:56:55.986Z,54.63
2022-12-07T17:59:25.548Z,50.75
2022-12-07T18:01:52.234Z,54.78
2022-12-07T18:04:21.926Z,52.38
2022-12-07T18:06:52.266Z,53.50
2022-12-07T18:09:19.442Z,54.20
2022-12-07T18:11:46.270Z,55.67
2022-12-07T18:14:12.903Z,53.03
2022-12-07T18:16:39.537Z,55.58
2022-12-07T18:19:07.156Z,57.42
2022-12-07T18:21:33.814Z,53.13
2022-12-07T18:24:04.974Z,55.90
2022-12-07T18:26:33.891Z,52.43
2022-12-07T18:29:01.030Z,50.92
2022-12-07T18:31:32.190Z,55.40
2022-12-07T18:34:05.402Z,60.37
2022-12-07T18:36:37.755Z,54.50
2022-12-07T18:39:05.209Z,55.97
2022-12-07T18:41:34.929Z,56.65
2022-12-07T18:44:03.832Z,56.47
2022-12-07T18:46:30.501Z,59.15
2022-12-07T18:49:00.069Z,60.65
2022-12-07T18:51:32.129Z,59.38
2022-12-07T18:54:01.576Z,55.10
2022-12-07T18:56:28.648Z,53.13
2022-12-07T18:59:15.144Z,58.13
2022-12-07T19:01:42.584Z,57.97
2022-12-07T19:04:12.068Z,54.38
2022-12-07T19:06:38.817Z,44.78
2022-12-07T19:09:06.437Z,122.80
2022-12-07T19:11:51.945Z,69.47
2022-12-07T19:14:27.515Z,55.00
2022-12-07T19:16:55.957Z,68.50
2022-12-07T19:19:24.160Z,74.80
2022-12-07T19:21:50.757Z,69.65
2022-12-07T19:24:23.603Z,116.78
2022-12-07T19:26:51.502Z,81.72
2022-12-07T19:29:18.303Z,71.07
2022-12-07T19:31:47.055Z,64.05
2022-12-07T19:34:16.435Z,109.78
2022-12-07T19:36:43.027Z,91.55
2022-12-07T19:39:14.349Z,44.22
2022-12-07T19:41:44.009Z,60.97
2022-12-07T19:44:14.816Z,134.15
2022-12-07T19:46:42.505Z,74.18
2022-12-07T19:49:09.717Z,80.95
2022-12-07T19:51:38.981Z,119.03
2022-12-07T19:54:05.644Z,140.35
2022-12-07T19:56:43.013Z,132.68
2022-12-07T19:59:14.202Z,44.97
2022-12-07T20:01:43.868Z,98.35
2022-12-07T20:04:13.176Z,69.45
2022-12-07T20:06:43.318Z,79.40
2022-12-07T20:09:11.306Z,55.25
2022-12-07T20:11:59.073Z,48.20
2022-12-07T20:14:26.119Z,48.72
2022-12-07T20:16:58.243Z,71.72
2022-12-07T20:19:25.236Z,77.03
2022-12-07T20:21:52.214Z,52.88
2022-12-07T20:24:20.708Z,60.38
2022-12-07T20:26:53.885Z,76.50
2022-12-07T20:29:22.382Z,46.35
2022-12-07T20:31:49.603Z,50.90
2022-12-07T20:34:17.129Z,56.70
2022-12-07T20:36:46.878Z,61.10
2022-12-07T20:39:16.754Z,48.53
2022-12-07T20:42:01.760Z,48.63
2022-12-07T20:44:29.605Z,48.45
2022-12-07T20:46:57.187Z,40.00
2022-12-07T20:49:23.766Z,51.08
2022-12-07T20:51:51.200Z,40.53
2022-12-07T20:54:17.878Z,51.60
2022-12-07T20:56:44.621Z,47.17
2022-12-07T20:59:13.100Z,47.58
2022-12-07T21:01:40.232Z,38.45
2022-12-07T21:04:12.570Z,42.97
2022-12-07T21:09:08.563Z,67.40
2022-12-07T21:11:35.150Z,55.83
2022-12-07T21:14:01.949Z,45.67
2022-12-07T21:16:29.904Z,61.75
2022-12-07T21:18:57.046Z,59.67
2022-12-07T21:21:24.140Z,70.22
2022-12-07T21:24:01.596Z,52.65
2022-12-07T21:26:28.978Z,54.40
2022-12-07T21:28:58.722Z,54.15
2022-12-07T21:31:27.063Z,57.55
2022-12-07T21:33:59.844Z,54.40
2022-12-07T21:36:28.426Z,54.70
2022-12-07T21:38:55.507Z,66.45
2022-12-07T21:41:23.620Z,63.90
2022-12-07T21:43:53.542Z,58.20
2022-12-07T21:46:21.730Z,68.75
2022-12-07T21:48:58.925Z,64.07
2022-12-07T21:51:30.952Z,74.43
2022-12-07T21:56:31.246Z,54.25
2022-12-07T21:59:05.282Z,82.85
2022-12-07T22:01:38.071Z,78.82
2022-12-07T22:04:07.099Z,86.53
2022-12-07T22:06:34.732Z,82.50
2022-12-07T22:09:01.279Z,77.35
2022-12-07T22:11:30.012Z,90.50
2022-12-07T22:14:15.887Z,77.18
2022-12-07T22:16:45.649Z,96.32
2022-12-07T22:19:15.117Z,92.82
2022-12-07T22:21:41.862Z,68.72
2022-12-07T22:24:09.036Z,85.82
2022-12-07T22:26:35.816Z,95.25
2022-12-07T22:29:02.484Z,73.47
2022-12-07T22:31:32.477Z,88.28
2022-12-07T22:33:59.216Z,84.38
2022-12-07T22:36:36.277Z,93.35
2022-12-07T22:39:06.248Z,80.05
2022-12-07T22:41:32.981Z,102.00
2022-12-07T22:44:03.572Z,105.57
2022-12-07T22:46:30.485Z,81.13
2022-12-07T22:48:59.279Z,93.32
2022-12-07T22:51:27.058Z,111.88
2022-12-07T22:53:54.695Z,108.82
2022-12-07T22:56:24.122Z,103.75
2022-12-07T22:58:53.603Z,113.63
2022-12-07T23:01:24.948Z,123.90
2022-12-07T23:03:59.444Z,96.75
2022-12-07T23:06:39.753Z,90.40
2022-12-07T23:09:08.472Z,99.68
2022-12-07T23:11:56.292Z,94.03
2022-12-07T23:14:33.995Z,122.13
2022-12-07T23:17:01.232Z,102.05
2022-12-07T23:19:28.410Z,95.00
2022-12-07T23:21:58.048Z,117.85
2022-12-07T23:24:37.753Z,103.25
2022-12-07T23:27:04.586Z,122.47
2022-12-07T23:29:31.150Z,121.78
2022-12-07T23:31:57.977Z,111.20
2022-12-07T23:34:29.215Z,121.72
2022-12-07T23:37:02.560Z,112.47
2022-12-07T23:39:32.135Z,129.25
2022-12-07T23:41:58.694Z,159.23
2022-12-07T23:44:28.285Z,143.63
2022-12-07T23:46:57.773Z,127.15
2022-12-07T23:49:24.343Z,167.90
2022-12-07T23:51:50.850Z,135.07
2022-12-07T23:54:17.428Z,120.10
2022-12-07T23:56:44.224Z,159.90
2022-12-07T23:59:13.898Z,145.48
